TAF and METAR

METAR for El Alto International Airport

SLLP 201400Z 26005KT 6000 FEW013 11/01 Q1040
Report created 20. sep 16:00
wind 5 knots from W (260°) visibility 6000 meters some clouds (~25% cover) at 1300 feet Temperature 11° with dewpoint at 1° (Humidity 50.08%) Pressure 1040 hPa

TAF for El Alto International Airport

TAF SLLP 201050Z 2012/2112 08005KT 9999 FEW013 TX19/2020Z TNM01/2110Z BECMG 2016/2018 14010KT SCT015 FEW017CB SCT070 TEMPO 2020/2023 34010KT 8000 VCTS BECMG 2105/2107 10005KT 3000E VCFG FEW003 SCT012
Report created 20. sep 12:50

between 20. sep 14:00 - 21. sep 14:00

wind 5 knots from E (080°) visibility > 10km some clouds (~25% cover) at 1300 feet Max temperature 19° expected today at around 22 o'clock Min temperature -01° expected tomorrow at around 12 o'clock

becoming between 20. sep 18:00 - 20. sep 20:00

wind 10 knots from SE (140°) scattered clouds (~50% cover) at 1500 feet some clouds (~25% cover) at 1700 feet of type cumulonimbus scattered clouds (~50% cover) at 7000 feet

temporarily between 20. sep 22:00 - 21. sep 01:00

wind 10 knots from NNW (340°) visibility 8000 meters thunderstorm and in the vicinity

becoming between 21. sep 07:00 - 21. sep 09:00

wind 5 knots from E (100°) visibility E 3000 meters fog in the vicinity some clouds (~25% cover) at 300 feet scattered clouds (~50% cover) at 1200 feet
El Alto International Airport in Bolivia at 4014m

Latest 5 airports